Baton Rouge, LA (70802)

8:47 PM CST on March 04, 2015 (GMT -0600)
Webb Park | Change Station
CLOSE
Current Station
Personal Weather Station
Location: Baton Rouge, LA
Elevation: 89 ft
Nearby Weather Stations
Active Advisory: Flood Warning Active Notice: Record Report

Elev 89 ft 30.44 °N, 91.14 °W | Updated 10 minutes ago

Overcast
Overcast
73.9 °F
Feels Like 72 °F
N
1.7
Wind Variable Wind from ESE

Today
High -- | Low -- °F
--% Chance of Precip.
Yesterday
High -- | Low -- °F
Precip. -- in
6:27 AM 6:05 PM
Full, 100% visible
Pressure 29.89 in
Visibility 10.0 miles
Clouds Mostly Cloudy 3200 ft
Overcast 10000 ft
Heat Index 72 °F
Dew Point 71 °F
Humidity 91%
Rainfall 0.00 in
Snow Depth Not available.
UV 0 out of 12
Pollen 10.30 out of 12
Air Quality Not available.
Flu Activity Not available.
METAR KBTR 050153Z 17009KT 10SM BKN032 OVC100 24/19 A2989 RMK AO2 SLP120 T02390194

More Conditions Fewer Conditions

Pressure 29.89 in
Visibility 10.0 miles
Clouds Mostly Cloudy 3200 ft
Overcast 10000 ft
Heat Index 72 °F
Dew Point 71 °F
Humidity 91%
Rainfall 0.00 in
Snow Depth Not available.
UV 0 out of 12
Pollen 10.30 out of 12
Air Quality Not available.
Flu Activity Not available.
METAR KBTR 050153Z 17009KT 10SM BKN032 OVC100 24/19 A2989 RMK AO2 SLP120 T02390194

More Conditions Fewer Conditions

10-Day Weather Forecast

Almanac

Astronomy

Mar. 04, 2015 Rise Set
Actual Time
Civil Twilight
Nautical Twilight
Astronomical Twilight
Moon
Length of Visible Light
Length of Day
Tomorrow will be .
, % of the Moon is Illuminated

Today's Extremes

State Highs State Lows

Community

WunderPhotos

Upload Photos

1,802,634 photos uploaded!

WunderBlogs® & News

Nearby

Air Quality

  Air Quality AQ Index Pollutant
Not available.

Snow Depth

Station Depth Elevation

Earthquake Activity

City Distance Mag. Time & Date
Minimum magnitude displayed is 2.5.

Coastal Water Temperatures

Place Temperature

Nearby Weather Stations

Flood Warning
Statement as of 11:11 AM CST on March 04, 2015

... Flood Warning extended until Thursday afternoon... the Flood
Warning continues for
the Amite river at Denham Springs.
* Until Thursday afternoon.
* At 10:00 am Wednesday the stage was 29.4 feet.
* Minor flooding is occurring and minor flooding is forecast.
* Flood stage is 29.0 feet.
* Forecast... the river will continue rising to near 30.0 feet by this
evening. The river will fall below flood stage tomorrow morning.
* Impact... at 30.0 feet... flooding will begin in the westernmost parts
of Denham Springs. River Road at the foot of Benton Lane will
flood.
* Impact... at 29.0 feet... flooding will begin in the westernmost parts
of Denham Springs.


Lat... Lon 3050 9095 3049 9102 3044 9100 3045 9093